createdAt,value
2018-07-08T00:00:15.324Z,3.77
2018-07-08T00:02:48.669Z,4.33
2018-07-08T00:05:17.656Z,4.15
2018-07-08T00:07:46.641Z,3.80
2018-07-08T00:10:15.601Z,4.03
2018-07-08T00:12:44.432Z,4.10
2018-07-08T00:15:13.707Z,3.60
2018-07-08T00:17:42.656Z,3.40
2018-07-08T00:20:11.532Z,4.00
2018-07-08T00:22:40.581Z,3.63
2018-07-08T00:25:09.456Z,3.73
2018-07-08T00:27:38.284Z,3.83
2018-07-08T00:30:07.814Z,3.70
2018-07-08T00:32:36.681Z,3.70
2018-07-08T00:35:05.673Z,3.80
2018-07-08T00:37:34.604Z,4.30
2018-07-08T00:40:03.365Z,4.20
2018-07-08T00:42:32.270Z,3.83
2018-07-08T00:45:01.156Z,4.53
2018-07-08T00:47:30.042Z,4.60
2018-07-08T00:49:58.978Z,4.70
2018-07-08T00:52:27.874Z,4.13
2018-07-08T00:54:56.968Z,4.40
2018-07-08T00:57:25.890Z,4.70
2018-07-08T00:59:54.658Z,4.47
2018-07-08T01:02:23.643Z,4.00
2018-07-08T01:04:52.483Z,4.10
2018-07-08T01:07:21.031Z,4.97
2018-07-08T01:09:50.116Z,4.80
2018-07-08T01:12:19.014Z,4.67
2018-07-08T01:14:47.969Z,4.40
2018-07-08T01:17:16.437Z,4.60
2018-07-08T01:19:45.400Z,4.30
2018-07-08T01:22:14.367Z,4.80
2018-07-08T01:24:43.322Z,4.20
2018-07-08T01:27:12.261Z,4.30
2018-07-08T01:29:41.457Z,4.40
2018-07-08T01:32:10.459Z,4.10
2018-07-08T01:34:39.550Z,4.20
2018-07-08T01:37:09.518Z,4.40
2018-07-08T01:39:38.578Z,4.40
2018-07-08T01:42:07.596Z,4.93
2018-07-08T01:44:36.568Z,4.73
2018-07-08T01:47:05.290Z,5.20
2018-07-08T01:49:34.518Z,4.67
2018-07-08T01:52:03.254Z,4.17
2018-07-08T01:54:32.124Z,4.63
2018-07-08T01:57:01.304Z,4.40
2018-07-08T01:59:30.596Z,4.80
2018-07-08T02:01:59.538Z,4.40
2018-07-08T02:04:28.381Z,4.63
2018-07-08T02:06:57.374Z,4.17
2018-07-08T02:09:26.212Z,4.83
2018-07-08T02:11:55.358Z,4.53
2018-07-08T02:14:24.656Z,4.27
2018-07-08T02:16:53.740Z,4.70
2018-07-08T02:19:22.602Z,4.23
2018-07-08T02:21:52.242Z,3.97
2018-07-08T02:24:21.305Z,4.23
2018-07-08T02:26:50.386Z,4.60
2018-07-08T02:29:19.450Z,4.67
2018-07-08T02:31:48.207Z,5.40
2018-07-08T02:34:17.306Z,5.30
2018-07-08T02:36:46.163Z,4.20
2018-07-08T02:39:15.086Z,4.67
2018-07-08T02:41:44.776Z,4.40
2018-07-08T02:44:13.639Z,4.50
2018-07-08T02:46:42.501Z,4.80
2018-07-08T02:49:11.627Z,4.57
2018-07-08T02:51:40.643Z,5.00
2018-07-08T02:54:09.125Z,4.77
2018-07-08T02:56:38.056Z,4.47
2018-07-08T02:59:06.893Z,4.20
2018-07-08T03:01:35.698Z,4.50
2018-07-08T03:04:04.861Z,4.50
2018-07-08T03:06:33.759Z,4.40
2018-07-08T03:09:02.729Z,4.00
2018-07-08T03:11:31.582Z,4.33
2018-07-08T03:14:00.493Z,4.60
2018-07-08T03:16:29.305Z,4.23
2018-07-08T03:18:58.070Z,4.30
2018-07-08T03:21:26.861Z,4.30
2018-07-08T03:23:55.912Z,4.70
2018-07-08T03:26:25.143Z,4.47
2018-07-08T03:28:54.244Z,4.40
2018-07-08T03:31:23.451Z,3.87
2018-07-08T03:33:52.466Z,4.13
2018-07-08T03:36:21.648Z,3.70
2018-07-08T03:38:50.641Z,4.23
2018-07-08T03:41:19.476Z,4.27
2018-07-08T03:43:48.415Z,4.10
2018-07-08T03:46:17.167Z,4.30
2018-07-08T03:48:46.616Z,4.63
2018-07-08T03:51:15.417Z,4.10
2018-07-08T03:53:44.426Z,4.50
2018-07-08T03:56:13.244Z,4.20
2018-07-08T03:58:41.672Z,4.53
2018-07-08T04:01:10.576Z,4.47
2018-07-08T04:03:39.837Z,4.57
2018-07-08T04:06:08.628Z,4.50
2018-07-08T04:08:37.462Z,4.77
2018-07-08T04:11:06.592Z,4.30
2018-07-08T04:13:35.542Z,4.37
2018-07-08T04:16:04.501Z,4.87
2018-07-08T04:18:33.348Z,5.20
2018-07-08T04:21:02.205Z,4.70
2018-07-08T04:23:31.182Z,5.07
2018-07-08T04:25:59.920Z,4.65
2018-07-08T04:28:28.704Z,4.40
2018-07-08T04:30:58.237Z,4.33
2018-07-08T04:33:27.113Z,4.50
2018-07-08T04:35:56.015Z,4.60
2018-07-08T04:38:24.871Z,4.80
2018-07-08T04:40:53.738Z,5.07
2018-07-08T04:43:22.560Z,5.00
2018-07-08T04:45:51.362Z,4.80
2018-07-08T04:48:20.287Z,4.93
2018-07-08T04:50:49.242Z,4.33
2018-07-08T04:53:17.978Z,4.57
2018-07-08T04:55:46.747Z,5.00
2018-07-08T04:58:15.725Z,4.23
2018-07-08T05:00:44.537Z,4.63
2018-07-08T05:03:13.401Z,4.80
2018-07-08T05:05:42.269Z,4.60
2018-07-08T05:08:11.075Z,4.00
2018-07-08T05:10:39.859Z,4.57
2018-07-08T05:13:08.225Z,4.70
2018-07-08T05:15:37.145Z,4.23
2018-07-08T05:18:06.161Z,4.57
2018-07-08T05:20:34.995Z,4.63
2018-07-08T05:23:04.484Z,4.60
2018-07-08T05:25:33.286Z,4.80
2018-07-08T05:28:02.119Z,4.20
2018-07-08T05:30:30.949Z,4.30
2018-07-08T05:32:59.897Z,4.03
2018-07-08T05:35:28.441Z,4.13
2018-07-08T05:37:57.247Z,4.80
2018-07-08T05:40:26.309Z,3.67
2018-07-08T05:42:55.030Z,3.90
2018-07-08T05:45:24.391Z,3.90
2018-07-08T05:47:53.685Z,4.00
2018-07-08T05:50:22.547Z,4.03
2018-07-08T05:52:51.453Z,3.87
2018-07-08T05:55:20.221Z,3.83
2018-07-08T05:57:48.566Z,4.07
2018-07-08T06:00:17.383Z,4.50
2018-07-08T06:02:46.036Z,3.57
2018-07-08T06:05:14.892Z,4.10
2018-07-08T06:07:43.835Z,3.77
2018-07-08T06:10:12.663Z,3.73
2018-07-08T06:12:41.541Z,3.80
2018-07-08T06:15:10.535Z,3.87
2018-07-08T06:17:39.255Z,3.40
2018-07-08T06:20:10.042Z,3.73
2018-07-08T06:22:39.609Z,3.90
2018-07-08T06:25:08.803Z,3.30
2018-07-08T06:27:37.713Z,3.30
2018-07-08T06:30:07.675Z,3.27
2018-07-08T06:32:36.612Z,4.00
2018-07-08T06:35:05.492Z,3.77
2018-07-08T06:37:34.333Z,3.95
2018-07-08T06:40:03.226Z,3.33
2018-07-08T06:42:31.925Z,3.17
2018-07-08T06:45:01.009Z,3.27
2018-07-08T06:47:29.910Z,2.85
2018-07-08T06:49:58.736Z,3.25
2018-07-08T06:52:27.597Z,3.27
2018-07-08T06:54:56.735Z,3.10
2018-07-08T06:57:25.539Z,2.93
2018-07-08T06:59:54.300Z,2.80
2018-07-08T07:02:23.413Z,3.47
2018-07-08T07:04:52.346Z,3.03
2018-07-08T07:07:21.140Z,2.90
2018-07-08T07:09:50.171Z,2.97
2018-07-08T07:12:19.367Z,2.77
2018-07-08T07:14:48.365Z,3.40
2018-07-08T07:17:17.311Z,3.23
2018-07-08T07:19:46.221Z,3.30
2018-07-08T07:22:15.342Z,3.23
2018-07-08T07:24:44.237Z,3.67
2018-07-08T07:27:12.978Z,3.53
2018-07-08T07:29:41.980Z,3.23
2018-07-08T07:32:10.812Z,3.10
2018-07-08T07:34:39.858Z,3.40
2018-07-08T07:37:08.468Z,3.00
2018-07-08T07:39:37.367Z,2.93
2018-07-08T07:42:06.240Z,2.80
2018-07-08T07:44:35.225Z,3.20
2018-07-08T07:47:04.126Z,2.90
2018-07-08T07:49:33.016Z,2.90
2018-07-08T07:52:01.870Z,2.73
2018-07-08T07:54:30.752Z,2.40
2018-07-08T07:56:59.558Z,2.90
2018-07-08T07:59:28.449Z,2.93
2018-07-08T08:01:57.182Z,2.70
2018-07-08T08:04:26.058Z,2.80
2018-07-08T08:06:55.242Z,2.33
2018-07-08T08:09:24.248Z,2.60
2018-07-08T08:11:53.108Z,2.60
2018-07-08T08:14:21.993Z,2.30
2018-07-08T08:16:51.142Z,2.23
2018-07-08T08:19:20.019Z,2.40
2018-07-08T08:21:48.786Z,2.33
2018-07-08T08:24:17.540Z,2.40
2018-07-08T08:26:46.618Z,2.03
2018-07-08T08:29:15.386Z,2.20
2018-07-08T08:31:44.392Z,2.00
2018-07-08T08:35:17.756Z,2.53
2018-07-08T08:37:47.890Z,2.10
2018-07-08T08:40:17.576Z,2.40
2018-07-08T08:42:46.522Z,2.00
2018-07-08T08:45:16.584Z,2.30
2018-07-08T08:47:45.482Z,2.50
2018-07-08T08:50:14.878Z,2.47
2018-07-08T08:52:43.788Z,2.30
2018-07-08T08:55:13.192Z,2.10
2018-07-08T08:57:42.196Z,2.43
2018-07-08T09:00:12.666Z,2.10
2018-07-08T09:02:41.816Z,2.00
2018-07-08T09:05:10.880Z,2.10
2018-07-08T09:07:42.517Z,2.07
2018-07-08T09:10:11.432Z,2.13
2018-07-08T09:12:40.249Z,2.10
2018-07-08T09:15:09.330Z,2.00
2018-07-08T09:17:38.556Z,2.20
2018-07-08T09:20:07.381Z,2.43
2018-07-08T09:22:36.265Z,2.10
2018-07-08T09:25:05.692Z,2.17
2018-07-08T09:27:45.047Z,2.30
2018-07-08T09:30:13.845Z,2.00
2018-07-08T09:32:42.782Z,1.50
2018-07-08T09:35:11.726Z,1.50
2018-07-08T09:37:40.546Z,1.37
2018-07-08T09:40:09.596Z,1.30
2018-07-08T09:42:38.914Z,1.60
2018-07-08T09:45:07.896Z,1.30
2018-07-08T09:47:37.360Z,1.40
2018-07-08T09:50:06.169Z,1.23
2018-07-08T09:52:35.142Z,1.00
2018-07-08T09:55:04.479Z,1.30
2018-07-08T09:57:33.439Z,1.30
2018-07-08T10:00:02.306Z,1.30
2018-07-08T10:02:35.151Z,1.07
2018-07-08T10:05:03.921Z,1.30
2018-07-08T10:07:32.886Z,1.40
2018-07-08T10:10:01.884Z,1.30
2018-07-08T10:12:31.442Z,1.57
2018-07-08T10:15:00.277Z,1.40
2018-07-08T10:17:29.268Z,1.20
2018-07-08T10:19:58.151Z,1.40
2018-07-08T10:22:26.973Z,1.30
2018-07-08T10:24:55.858Z,1.47
2018-07-08T10:27:49.301Z,1.37
2018-07-08T10:30:18.112Z,1.63
2018-07-08T10:32:47.090Z,1.27
2018-07-08T10:35:37.795Z,1.53
2018-07-08T10:38:07.157Z,1.40
2018-07-08T10:40:36.027Z,1.40
2018-07-08T10:43:05.143Z,1.40
2018-07-08T10:45:33.958Z,1.30
2018-07-08T10:48:03.473Z,1.10
2018-07-08T10:50:32.236Z,1.47
2018-07-08T10:53:01.336Z,1.27
2018-07-08T10:55:30.589Z,1.10
2018-07-08T10:57:59.377Z,1.13
2018-07-08T11:00:28.468Z,1.00
2018-07-08T11:02:57.371Z,1.10
2018-07-08T11:05:26.390Z,1.30
2018-07-08T11:07:55.746Z,1.40
2018-07-08T11:10:24.614Z,1.07
2018-07-08T11:12:53.408Z,1.20
2018-07-08T11:15:22.684Z,1.30
2018-07-08T11:17:51.657Z,0.97
2018-07-08T11:20:21.316Z,0.70
2018-07-08T11:22:50.238Z,0.83
2018-07-08T11:25:19.371Z,1.20
2018-07-08T11:27:48.243Z,1.20
2018-07-08T11:30:17.266Z,1.00
2018-07-08T11:32:46.103Z,1.20
2018-07-08T11:35:15.053Z,1.23
2018-07-08T11:37:44.115Z,1.00
2018-07-08T11:40:12.960Z,1.10
2018-07-08T11:42:41.779Z,1.20
2018-07-08T11:45:10.697Z,1.27
2018-07-08T11:47:39.590Z,1.50
2018-07-08T11:50:08.579Z,1.22
2018-07-08T11:52:37.478Z,1.20
2018-07-08T11:55:06.437Z,1.15
2018-07-08T11:57:35.496Z,1.17
2018-07-08T12:00:04.492Z,1.30
2018-07-08T12:02:33.330Z,1.27
2018-07-08T12:05:02.242Z,1.10
2018-07-08T12:07:31.300Z,1.40
2018-07-08T12:10:00.707Z,1.50
2018-07-08T12:12:29.672Z,1.75
2018-07-08T12:14:58.723Z,1.20
2018-07-08T12:17:27.578Z,1.20
2018-07-08T12:19:56.485Z,1.50
2018-07-08T12:22:25.474Z,1.40
2018-07-08T12:24:54.446Z,1.00
2018-07-08T12:27:23.595Z,1.30
2018-07-08T12:29:52.507Z,1.10
2018-07-08T12:32:21.704Z,1.27
2018-07-08T12:34:50.715Z,1.07
2018-07-08T12:37:19.717Z,1.35
2018-07-08T12:39:48.846Z,1.40
2018-07-08T12:42:17.855Z,1.40
2018-07-08T12:44:47.829Z,1.05
2018-07-08T12:47:17.411Z,1.27
2018-07-08T12:49:46.593Z,0.98
2018-07-08T12:52:17.551Z,1.30
2018-07-08T12:54:47.839Z,1.05
2018-07-08T12:57:17.137Z,1.15
2018-07-08T12:59:46.090Z,1.02
2018-07-08T13:02:14.948Z,1.20
2018-07-08T13:04:43.787Z,1.02
2018-07-08T13:07:12.854Z,0.95
2018-07-08T13:09:41.830Z,0.90
2018-07-08T13:12:10.910Z,0.90
2018-07-08T13:14:39.698Z,1.00
2018-07-08T13:17:14.547Z,1.00
2018-07-08T13:19:43.361Z,1.22
2018-07-08T13:22:12.647Z,1.07
2018-07-08T13:24:41.591Z,1.00
2018-07-08T13:27:10.735Z,1.20
2018-07-08T13:29:39.105Z,0.93
2018-07-08T13:32:08.111Z,1.02
2018-07-08T13:34:36.987Z,1.27
2018-07-08T13:37:06.047Z,1.10
2018-07-08T13:39:34.938Z,1.00
2018-07-08T13:42:03.698Z,1.17
2018-07-08T13:44:32.797Z,0.90
2018-07-08T13:47:01.649Z,1.30
2018-07-08T13:49:30.465Z,1.40
2018-07-08T13:51:59.379Z,1.02
2018-07-08T13:54:28.178Z,1.30
2018-07-08T13:56:57.178Z,1.00
2018-07-08T13:59:26.073Z,1.27
2018-07-08T14:01:56.950Z,1.02
2018-07-08T14:04:28.869Z,0.90
2018-07-08T14:06:57.719Z,1.05
2018-07-08T14:09:26.798Z,1.20
2018-07-08T14:11:55.745Z,1.10
2018-07-08T14:14:24.619Z,1.07
2018-07-08T14:16:53.739Z,0.98
2018-07-08T14:19:22.623Z,1.37
2018-07-08T14:22:01.639Z,1.12
2018-07-08T14:24:31.124Z,1.40
2018-07-08T14:27:02.224Z,1.20
2018-07-08T14:29:31.265Z,1.30
2018-07-08T14:31:59.973Z,1.30
2018-07-08T14:34:28.895Z,1.60
2018-07-08T14:40:59.245Z,1.20
2018-07-08T14:43:27.795Z,1.10
2018-07-08T14:45:56.415Z,1.42
2018-07-08T14:48:25.185Z,1.60
2018-07-08T14:50:53.909Z,1.40
2018-07-08T14:53:22.537Z,1.20
2018-07-08T14:55:54.999Z,1.67
2018-07-08T14:58:27.138Z,1.32
2018-07-08T15:00:55.673Z,1.42
2018-07-08T15:03:24.437Z,1.27
2018-07-08T15:05:52.976Z,1.25
2018-07-08T15:08:21.641Z,1.25
2018-07-08T15:10:50.287Z,1.37
2018-07-08T15:13:18.848Z,1.30
2018-07-08T15:15:47.652Z,1.40
2018-07-08T15:18:16.531Z,1.60
2018-07-08T15:20:45.564Z,1.50
2018-07-08T15:23:14.639Z,1.30
2018-07-08T15:25:43.763Z,1.40
2018-07-08T15:28:12.719Z,1.30
2018-07-08T15:30:43.609Z,1.20
2018-07-08T15:33:12.960Z,1.30
2018-07-08T15:35:42.571Z,1.35
2018-07-08T15:38:11.552Z,1.77
2018-07-08T15:40:40.545Z,2.10
2018-07-08T15:46:01.524Z,1.65
2018-07-08T15:48:31.947Z,1.60
2018-07-08T15:51:00.932Z,0.95
2018-07-08T15:53:29.700Z,1.35
2018-07-08T15:55:58.758Z,1.37
2018-07-08T15:58:27.734Z,1.45
2018-07-08T16:00:56.704Z,1.15
2018-07-08T16:03:25.700Z,1.40
2018-07-08T16:05:54.520Z,1.35
2018-07-08T16:08:23.441Z,1.40
2018-07-08T16:10:52.710Z,1.20
2018-07-08T16:13:21.634Z,1.30
2018-07-08T16:15:50.652Z,1.52
2018-07-08T16:18:20.030Z,1.05
2018-07-08T16:20:48.986Z,1.20
2018-07-08T16:23:18.888Z,1.40
2018-07-08T16:25:48.106Z,1.40
2018-07-08T16:28:17.238Z,1.50
2018-07-08T16:30:46.086Z,1.50
2018-07-08T16:33:15.159Z,1.27
2018-07-08T16:35:47.268Z,1.17
2018-07-08T16:38:16.207Z,1.40
2018-07-08T16:40:45.320Z,1.17
2018-07-08T16:43:14.900Z,1.50
2018-07-08T16:45:43.910Z,1.30
2018-07-08T16:48:12.932Z,1.62
2018-07-08T16:50:41.860Z,1.47
2018-07-08T16:53:10.875Z,1.20
2018-07-08T16:55:39.851Z,1.90
2018-07-08T16:58:08.823Z,1.30
2018-07-08T17:00:37.703Z,1.57
2018-07-08T17:03:06.220Z,1.60
2018-07-08T17:05:35.143Z,1.32
2018-07-08T17:08:03.990Z,1.40
2018-07-08T17:10:33.519Z,1.55
2018-07-08T17:13:02.430Z,1.60
2018-07-08T17:15:31.300Z,1.07
2018-07-08T17:18:00.126Z,1.27
2018-07-08T17:20:29.127Z,1.40
2018-07-08T17:22:58.063Z,1.45
2018-07-08T17:25:27.125Z,1.40
2018-07-08T17:27:55.486Z,1.60
2018-07-08T17:30:24.346Z,1.50
2018-07-08T17:32:53.205Z,1.50
2018-07-08T17:35:22.241Z,1.57
2018-07-08T17:37:51.640Z,1.40
2018-07-08T17:40:20.676Z,1.50
2018-07-08T17:42:49.592Z,1.60
2018-07-08T17:45:18.449Z,1.80
2018-07-08T17:47:47.521Z,1.90
2018-07-08T17:50:16.805Z,1.93
2018-07-08T17:52:46.326Z,1.70
2018-07-08T17:55:15.148Z,1.70
2018-07-08T17:57:48.267Z,1.60
2018-07-08T18:00:17.131Z,1.70
2018-07-08T18:02:46.090Z,1.70
2018-07-08T18:05:14.940Z,1.43
2018-07-08T18:07:43.978Z,1.73
2018-07-08T18:10:13.093Z,2.00
2018-07-08T18:12:42.007Z,2.00
2018-07-08T18:15:11.822Z,2.30
2018-07-08T18:17:41.407Z,2.10
2018-07-08T18:20:10.092Z,2.30
2018-07-08T18:22:39.247Z,2.10
2018-07-08T18:25:08.227Z,2.10
2018-07-08T18:27:38.162Z,2.60
2018-07-08T18:30:07.988Z,2.40
2018-07-08T18:32:37.183Z,2.90
2018-07-08T18:35:06.268Z,2.70
2018-07-08T18:37:35.357Z,2.60
2018-07-08T18:40:04.756Z,2.53
2018-07-08T18:42:33.758Z,2.60
2018-07-08T18:45:02.742Z,2.70
2018-07-08T18:47:31.770Z,3.00
2018-07-08T18:50:00.830Z,3.00
2018-07-08T18:52:34.721Z,3.17
2018-07-08T18:55:04.135Z,2.87
2018-07-08T18:57:33.382Z,2.77
2018-07-08T19:00:02.309Z,3.20
2018-07-08T19:02:31.328Z,3.07
2018-07-08T19:05:00.785Z,3.00
2018-07-08T19:07:29.757Z,3.30
2018-07-08T19:09:58.989Z,2.90
2018-07-08T19:12:27.768Z,3.20
2018-07-08T19:14:56.808Z,3.10
2018-07-08T19:17:25.722Z,3.20
2018-07-08T19:19:55.483Z,3.30
2018-07-08T19:22:24.606Z,3.07
2018-07-08T19:24:53.525Z,3.40
2018-07-08T19:27:23.189Z,3.40
2018-07-08T19:29:52.935Z,3.10
2018-07-08T19:32:21.926Z,3.40
2018-07-08T19:34:51.042Z,3.23
2018-07-08T19:37:20.030Z,3.30
2018-07-08T19:39:48.976Z,3.20
2018-07-08T19:42:17.862Z,3.20
2018-07-08T19:44:47.426Z,3.30
2018-07-08T19:47:16.537Z,3.13
2018-07-08T19:49:45.405Z,2.90
2018-07-08T19:52:15.027Z,2.77
2018-07-08T19:54:43.982Z,3.00
2018-07-08T19:57:12.900Z,2.90
2018-07-08T19:59:43.228Z,3.37
2018-07-08T20:02:12.190Z,3.23
2018-07-08T20:04:41.212Z,3.13
2018-07-08T20:07:10.579Z,3.50
2018-07-08T20:09:39.657Z,3.30
2018-07-08T20:12:09.088Z,3.43
2018-07-08T20:14:38.690Z,3.10
2018-07-08T20:17:08.121Z,3.70
2018-07-08T20:19:37.160Z,2.90
2018-07-08T20:22:06.364Z,3.30
2018-07-08T20:24:35.755Z,3.20
2018-07-08T20:27:05.040Z,3.30
2018-07-08T20:29:33.538Z,3.57
2018-07-08T20:32:02.397Z,3.10
2018-07-08T20:34:32.025Z,3.00
2018-07-08T20:37:00.912Z,3.17
2018-07-08T20:39:29.293Z,3.03
2018-07-08T20:41:58.718Z,2.90
2018-07-08T20:44:27.645Z,3.23
2018-07-08T20:46:56.532Z,3.30
2018-07-08T20:49:26.186Z,3.00
2018-07-08T20:51:56.908Z,3.70
2018-07-08T20:54:26.170Z,3.13
2018-07-08T20:56:55.079Z,2.60
2018-07-08T20:59:24.149Z,3.40
2018-07-08T21:01:53.078Z,3.33
2018-07-08T21:04:22.829Z,3.53
2018-07-08T21:06:51.740Z,3.00
2018-07-08T21:09:20.634Z,3.17
2018-07-08T21:11:49.546Z,3.30
2018-07-08T21:14:18.340Z,3.30
2018-07-08T21:16:47.170Z,3.33
2018-07-08T21:19:16.050Z,3.40
2018-07-08T21:21:45.416Z,3.20
2018-07-08T21:24:14.356Z,3.33
2018-07-08T21:26:43.248Z,2.77
2018-07-08T21:29:12.135Z,3.10
2018-07-08T21:31:41.319Z,2.60
2018-07-08T21:34:09.672Z,3.07
2018-07-08T21:36:38.555Z,2.90
2018-07-08T21:39:09.624Z,3.37
2018-07-08T21:41:38.916Z,2.90
2018-07-08T21:44:08.074Z,3.30
2018-07-08T21:46:36.911Z,3.00
2018-07-08T21:49:05.347Z,3.10
2018-07-08T21:51:34.256Z,3.30
2018-07-08T21:54:03.225Z,3.30
2018-07-08T21:56:32.107Z,2.80
2018-07-08T21:59:01.081Z,2.93
2018-07-08T22:01:32.193Z,2.90
2018-07-08T22:04:01.049Z,2.97
2018-07-08T22:06:30.141Z,3.23
2018-07-08T22:08:58.918Z,3.17
2018-07-08T22:11:27.797Z,2.97
2018-07-08T22:13:56.740Z,3.10
2018-07-08T22:16:25.625Z,2.40
2018-07-08T22:18:54.449Z,2.60
2018-07-08T22:21:23.474Z,3.00
2018-07-08T22:23:52.429Z,2.80
2018-07-08T22:26:21.297Z,3.00
2018-07-08T22:28:50.345Z,2.87
2018-07-08T22:31:19.166Z,2.73
2018-07-08T22:33:48.149Z,2.80
2018-07-08T22:36:17.002Z,3.40
2018-07-08T22:38:46.028Z,3.50
2018-07-08T22:41:14.832Z,3.00
2018-07-08T22:43:43.975Z,3.43
2018-07-08T22:46:12.778Z,3.40
2018-07-08T22:48:41.583Z,3.17
2018-07-08T22:51:10.488Z,3.30
2018-07-08T22:53:39.338Z,3.00
2018-07-08T22:56:08.174Z,2.87
2018-07-08T22:58:37.140Z,2.87
2018-07-08T23:01:17.198Z,3.07
2018-07-08T23:03:48.173Z,3.00
2018-07-08T23:06:18.639Z,2.90
2018-07-08T23:08:48.156Z,2.80
2018-07-08T23:11:17.010Z,3.80
2018-07-08T23:13:46.428Z,3.20
2018-07-08T23:16:15.306Z,3.30
2018-07-08T23:18:44.286Z,2.95
2018-07-08T23:21:13.250Z,3.13
2018-07-08T23:23:42.117Z,3.33
2018-07-08T23:26:10.868Z,3.30
2018-07-08T23:28:39.770Z,3.30
2018-07-08T23:31:08.779Z,3.67
2018-07-08T23:33:37.673Z,3.43
2018-07-08T23:36:07.088Z,3.57
2018-07-08T23:38:36.273Z,3.60
2018-07-08T23:41:06.366Z,3.73
2018-07-08T23:43:35.338Z,3.50
2018-07-08T23:46:04.690Z,3.30
2018-07-08T23:48:34.072Z,3.47
2018-07-08T23:51:02.960Z,3.50
2018-07-08T23:53:32.185Z,3.20
2018-07-08T23:56:01.157Z,3.33
2018-07-08T23:58:29.476Z,3.20
